sensor_id;sensor_type;location;lat;lon;timestamp;P1;durP1;ratioP1;P2;durP2;ratioP2
69910;SDS011;63555;49.920;17.868;2022-10-13T00:00:30;17.87;;;8.80;;
69910;SDS011;63555;49.920;17.868;2022-10-13T00:02:58;19.25;;;8.95;;
69910;SDS011;63555;49.920;17.868;2022-10-13T00:05:25;21.33;;;9.05;;
69910;SDS011;63555;49.920;17.868;2022-10-13T00:07:50;23.83;;;10.27;;
69910;SDS011;63555;49.920;17.868;2022-10-13T00:10:16;19.70;;;8.57;;
69910;SDS011;63555;49.920;17.868;2022-10-13T00:12:41;25.63;;;9.85;;
69910;SDS011;63555;49.920;17.868;2022-10-13T00:15:07;18.87;;;9.37;;
69910;SDS011;63555;49.920;17.868;2022-10-13T00:17:33;26.23;;;10.70;;
69910;SDS011;63555;49.920;17.868;2022-10-13T00:20:00;19.23;;;9.30;;
69910;SDS011;63555;49.920;17.868;2022-10-13T00:22:26;21.63;;;9.50;;
69910;SDS011;63555;49.920;17.868;2022-10-13T00:24:52;20.80;;;9.57;;
69910;SDS011;63555;49.920;17.868;2022-10-13T00:27:18;21.85;;;9.63;;
69910;SDS011;63555;49.920;17.868;2022-10-13T00:29:44;18.65;;;8.65;;
69910;SDS011;63555;49.920;17.868;2022-10-13T00:32:10;17.55;;;9.10;;
69910;SDS011;63555;49.920;17.868;2022-10-13T00:34:35;26.52;;;8.50;;
69910;SDS011;63555;49.920;17.868;2022-10-13T00:37:02;20.80;;;9.83;;
69910;SDS011;63555;49.920;17.868;2022-10-13T00:39:28;21.42;;;8.35;;
69910;SDS011;63555;49.920;17.868;2022-10-13T00:41:53;23.63;;;10.05;;
69910;SDS011;63555;49.920;17.868;2022-10-13T00:47:22;15.80;;;8.20;;
69910;SDS011;63555;49.920;17.868;2022-10-13T00:49:50;21.40;;;8.95;;
69910;SDS011;63555;49.920;17.868;2022-10-13T00:52:18;20.75;;;8.73;;
69910;SDS011;63555;49.920;17.868;2022-10-13T00:54:45;18.27;;;8.30;;
69910;SDS011;63555;49.920;17.868;2022-10-13T00:57:12;20.70;;;9.15;;
69910;SDS011;63555;49.920;17.868;2022-10-13T00:59:37;17.95;;;8.13;;
69910;SDS011;63555;49.920;17.868;2022-10-13T01:02:04;18.27;;;8.83;;
69910;SDS011;63555;49.920;17.868;2022-10-13T01:04:33;22.50;;;9.98;;
69910;SDS011;63555;49.920;17.868;2022-10-13T01:07:03;23.33;;;9.05;;
69910;SDS011;63555;49.920;17.868;2022-10-13T01:09:30;18.80;;;9.05;;
69910;SDS011;63555;49.920;17.868;2022-10-13T01:12:05;23.65;;;8.70;;
69910;SDS011;63555;49.920;17.868;2022-10-13T01:15:04;23.47;;;9.07;;
69910;SDS011;63555;49.920;17.868;2022-10-13T01:17:32;19.00;;;7.85;;
69910;SDS011;63555;49.920;17.868;2022-10-13T01:23:53;17.70;;;8.40;;
69910;SDS011;63555;49.920;17.868;2022-10-13T01:31:54;18.83;;;7.53;;
69910;SDS011;63555;49.920;17.868;2022-10-13T01:34:43;17.00;;;7.90;;
69910;SDS011;63555;49.920;17.868;2022-10-13T01:40:07;18.38;;;8.10;;
69910;SDS011;63555;49.920;17.868;2022-10-13T01:45:16;21.02;;;8.70;;
69910;SDS011;63555;49.920;17.868;2022-10-13T01:47:45;20.03;;;8.53;;
69910;SDS011;63555;49.920;17.868;2022-10-13T01:50:14;18.85;;;8.15;;
69910;SDS011;63555;49.920;17.868;2022-10-13T01:52:43;20.23;;;8.40;;
69910;SDS011;63555;49.920;17.868;2022-10-13T01:55:10;25.77;;;8.75;;
69910;SDS011;63555;49.920;17.868;2022-10-13T01:57:38;23.70;;;8.20;;
69910;SDS011;63555;49.920;17.868;2022-10-13T02:00:09;15.73;;;7.07;;
69910;SDS011;63555;49.920;17.868;2022-10-13T02:05:28;19.45;;;8.30;;
69910;SDS011;63555;49.920;17.868;2022-10-13T02:11:13;21.33;;;7.20;;
69910;SDS011;63555;49.920;17.868;2022-10-13T02:13:46;16.93;;;8.10;;
69910;SDS011;63555;49.920;17.868;2022-10-13T02:16:13;18.15;;;7.15;;
69910;SDS011;63555;49.920;17.868;2022-10-13T02:18:40;16.40;;;8.15;;
69910;SDS011;63555;49.920;17.868;2022-10-13T02:21:06;15.45;;;7.68;;
69910;SDS011;63555;49.920;17.868;2022-10-13T02:23:31;19.47;;;8.20;;
69910;SDS011;63555;49.920;17.868;2022-10-13T02:25:57;16.47;;;7.60;;
69910;SDS011;63555;49.920;17.868;2022-10-13T02:28:24;18.73;;;8.00;;
69910;SDS011;63555;49.920;17.868;2022-10-13T02:30:50;20.67;;;7.40;;
69910;SDS011;63555;49.920;17.868;2022-10-13T02:33:15;15.10;;;6.73;;
69910;SDS011;63555;49.920;17.868;2022-10-13T02:35:41;19.47;;;7.40;;
69910;SDS011;63555;49.920;17.868;2022-10-13T02:38:07;16.38;;;7.80;;
69910;SDS011;63555;49.920;17.868;2022-10-13T02:40:33;17.80;;;8.03;;
69910;SDS011;63555;49.920;17.868;2022-10-13T02:42:58;16.35;;;8.18;;
69910;SDS011;63555;49.920;17.868;2022-10-13T02:45:24;14.40;;;7.70;;
69910;SDS011;63555;49.920;17.868;2022-10-13T02:47:49;19.30;;;8.37;;
69910;SDS011;63555;49.920;17.868;2022-10-13T02:50:14;20.27;;;8.77;;
69910;SDS011;63555;49.920;17.868;2022-10-13T02:52:40;17.45;;;8.00;;
69910;SDS011;63555;49.920;17.868;2022-10-13T02:55:06;15.97;;;7.80;;
69910;SDS011;63555;49.920;17.868;2022-10-13T02:57:32;18.02;;;7.78;;
69910;SDS011;63555;49.920;17.868;2022-10-13T02:59:57;19.70;;;8.73;;
69910;SDS011;63555;49.920;17.868;2022-10-13T03:02:24;18.73;;;8.30;;
69910;SDS011;63555;49.920;17.868;2022-10-13T03:04:50;24.92;;;8.88;;
69910;SDS011;63555;49.920;17.868;2022-10-13T03:07:16;15.23;;;7.57;;
69910;SDS011;63555;49.920;17.868;2022-10-13T03:09:41;17.63;;;7.25;;
69910;SDS011;63555;49.920;17.868;2022-10-13T03:12:06;20.33;;;8.27;;
69910;SDS011;63555;49.920;17.868;2022-10-13T03:14:32;19.17;;;8.10;;
69910;SDS011;63555;49.920;17.868;2022-10-13T03:16:58;20.17;;;8.70;;
69910;SDS011;63555;49.920;17.868;2022-10-13T03:19:23;21.27;;;8.68;;
69910;SDS011;63555;49.920;17.868;2022-10-13T03:21:48;16.60;;;7.87;;
69910;SDS011;63555;49.920;17.868;2022-10-13T03:24:14;17.90;;;8.00;;
69910;SDS011;63555;49.920;17.868;2022-10-13T03:26:39;18.03;;;7.53;;
69910;SDS011;63555;49.920;17.868;2022-10-13T03:29:05;16.83;;;7.37;;
69910;SDS011;63555;49.920;17.868;2022-10-13T03:31:30;16.20;;;7.95;;
69910;SDS011;63555;49.920;17.868;2022-10-13T03:33:55;17.53;;;7.87;;
69910;SDS011;63555;49.920;17.868;2022-10-13T03:36:21;17.97;;;8.07;;
69910;SDS011;63555;49.920;17.868;2022-10-13T03:38:46;19.53;;;8.37;;
69910;SDS011;63555;49.920;17.868;2022-10-13T03:41:13;16.93;;;7.83;;
69910;SDS011;63555;49.920;17.868;2022-10-13T03:43:40;16.25;;;7.07;;
69910;SDS011;63555;49.920;17.868;2022-10-13T03:46:07;18.77;;;8.45;;
69910;SDS011;63555;49.920;17.868;2022-10-13T03:48:34;17.65;;;8.48;;
69910;SDS011;63555;49.920;17.868;2022-10-13T03:51:03;24.13;;;9.90;;
69910;SDS011;63555;49.920;17.868;2022-10-13T03:53:29;25.40;;;9.95;;
69910;SDS011;63555;49.920;17.868;2022-10-13T03:55:55;19.60;;;8.97;;
69910;SDS011;63555;49.920;17.868;2022-10-13T03:58:21;23.73;;;8.88;;
69910;SDS011;63555;49.920;17.868;2022-10-13T04:00:48;18.23;;;8.27;;
69910;SDS011;63555;49.920;17.868;2022-10-13T04:03:14;21.00;;;7.60;;
69910;SDS011;63555;49.920;17.868;2022-10-13T04:05:39;19.77;;;7.53;;
69910;SDS011;63555;49.920;17.868;2022-10-13T04:08:05;18.03;;;7.80;;
69910;SDS011;63555;49.920;17.868;2022-10-13T04:10:31;18.35;;;7.82;;
69910;SDS011;63555;49.920;17.868;2022-10-13T04:12:56;15.53;;;7.27;;
69910;SDS011;63555;49.920;17.868;2022-10-13T04:15:21;20.40;;;10.30;;
69910;SDS011;63555;49.920;17.868;2022-10-13T04:17:47;18.50;;;9.10;;
69910;SDS011;63555;49.920;17.868;2022-10-13T04:20:12;23.92;;;8.38;;
69910;SDS011;63555;49.920;17.868;2022-10-13T04:22:38;24.27;;;9.50;;
69910;SDS011;63555;49.920;17.868;2022-10-13T04:25:03;20.13;;;8.93;;
69910;SDS011;63555;49.920;17.868;2022-10-13T04:27:30;22.20;;;8.10;;
69910;SDS011;63555;49.920;17.868;2022-10-13T04:29:56;23.27;;;8.63;;
69910;SDS011;63555;49.920;17.868;2022-10-13T04:32:22;27.13;;;8.80;;
69910;SDS011;63555;49.920;17.868;2022-10-13T04:34:47;19.70;;;8.40;;
69910;SDS011;63555;49.920;17.868;2022-10-13T04:37:12;15.63;;;7.23;;
69910;SDS011;63555;49.920;17.868;2022-10-13T04:39:38;15.77;;;7.37;;
69910;SDS011;63555;49.920;17.868;2022-10-13T04:42:03;19.10;;;7.75;;
69910;SDS011;63555;49.920;17.868;2022-10-13T04:44:29;16.98;;;7.88;;
69910;SDS011;63555;49.920;17.868;2022-10-13T04:46:55;22.83;;;8.17;;
69910;SDS011;63555;49.920;17.868;2022-10-13T04:49:20;17.77;;;8.13;;
69910;SDS011;63555;49.920;17.868;2022-10-13T04:51:46;18.90;;;8.17;;
69910;SDS011;63555;49.920;17.868;2022-10-13T04:54:11;17.73;;;8.20;;
69910;SDS011;63555;49.920;17.868;2022-10-13T04:56:37;20.03;;;8.13;;
69910;SDS011;63555;49.920;17.868;2022-10-13T04:59:03;19.55;;;8.48;;
69910;SDS011;63555;49.920;17.868;2022-10-13T05:01:31;18.08;;;8.10;;
69910;SDS011;63555;49.920;17.868;2022-10-13T05:03:58;18.30;;;7.53;;
69910;SDS011;63555;49.920;17.868;2022-10-13T05:06:30;13.88;;;7.57;;
69910;SDS011;63555;49.920;17.868;2022-10-13T05:08:57;16.52;;;8.00;;
69910;SDS011;63555;49.920;17.868;2022-10-13T05:11:24;16.20;;;7.77;;
69910;SDS011;63555;49.920;17.868;2022-10-13T05:13:50;18.10;;;7.70;;
69910;SDS011;63555;49.920;17.868;2022-10-13T05:16:17;13.38;;;6.28;;
69910;SDS011;63555;49.920;17.868;2022-10-13T05:18:43;15.17;;;7.53;;
69910;SDS011;63555;49.920;17.868;2022-10-13T05:21:10;14.20;;;7.20;;
69910;SDS011;63555;49.920;17.868;2022-10-13T05:23:47;16.77;;;6.63;;
69910;SDS011;63555;49.920;17.868;2022-10-13T05:26:13;19.03;;;6.83;;
69910;SDS011;63555;49.920;17.868;2022-10-13T05:28:41;14.55;;;6.82;;
69910;SDS011;63555;49.920;17.868;2022-10-13T05:31:08;14.65;;;7.00;;
69910;SDS011;63555;49.920;17.868;2022-10-13T05:33:35;14.23;;;6.82;;
69910;SDS011;63555;49.920;17.868;2022-10-13T05:36:04;21.60;;;7.43;;
69910;SDS011;63555;49.920;17.868;2022-10-13T05:38:37;14.48;;;7.65;;
69910;SDS011;63555;49.920;17.868;2022-10-13T05:41:12;17.08;;;7.88;;
69910;SDS011;63555;49.920;17.868;2022-10-13T05:43:38;18.38;;;8.23;;
69910;SDS011;63555;49.920;17.868;2022-10-13T05:46:06;21.38;;;7.63;;
69910;SDS011;63555;49.920;17.868;2022-10-13T05:48:32;20.47;;;7.70;;
69910;SDS011;63555;49.920;17.868;2022-10-13T05:50:58;16.58;;;7.82;;
69910;SDS011;63555;49.920;17.868;2022-10-13T05:53:29;18.15;;;7.45;;
69910;SDS011;63555;49.920;17.868;2022-10-13T05:55:58;22.95;;;7.55;;
69910;SDS011;63555;49.920;17.868;2022-10-13T05:58:40;19.17;;;7.73;;
69910;SDS011;63555;49.920;17.868;2022-10-13T06:01:12;18.95;;;7.55;;
69910;SDS011;63555;49.920;17.868;2022-10-13T06:03:41;19.23;;;7.28;;
69910;SDS011;63555;49.920;17.868;2022-10-13T06:06:09;15.52;;;6.88;;
69910;SDS011;63555;49.920;17.868;2022-10-13T06:08:34;22.63;;;7.90;;
69910;SDS011;63555;49.920;17.868;2022-10-13T06:11:01;22.33;;;8.90;;
69910;SDS011;63555;49.920;17.868;2022-10-13T06:13:27;22.05;;;8.15;;
69910;SDS011;63555;49.920;17.868;2022-10-13T06:15:52;25.73;;;9.13;;
69910;SDS011;63555;49.920;17.868;2022-10-13T06:18:18;25.57;;;9.40;;
69910;SDS011;63555;49.920;17.868;2022-10-13T06:20:43;25.93;;;11.10;;
69910;SDS011;63555;49.920;17.868;2022-10-13T06:23:09;19.53;;;9.33;;
69910;SDS011;63555;49.920;17.868;2022-10-13T06:25:34;23.83;;;9.90;;
69910;SDS011;63555;49.920;17.868;2022-10-13T06:28:00;25.83;;;11.77;;
69910;SDS011;63555;49.920;17.868;2022-10-13T06:30:26;33.00;;;12.07;;
69910;SDS011;63555;49.920;17.868;2022-10-13T06:32:54;28.15;;;10.95;;
69910;SDS011;63555;49.920;17.868;2022-10-13T06:35:21;22.95;;;10.15;;
69910;SDS011;63555;49.920;17.868;2022-10-13T06:37:47;21.07;;;9.80;;
69910;SDS011;63555;49.920;17.868;2022-10-13T06:40:13;22.45;;;9.43;;
69910;SDS011;63555;49.920;17.868;2022-10-13T06:42:39;23.25;;;8.98;;
69910;SDS011;63555;49.920;17.868;2022-10-13T06:45:05;24.63;;;9.60;;
69910;SDS011;63555;49.920;17.868;2022-10-13T06:47:30;23.42;;;9.68;;
69910;SDS011;63555;49.920;17.868;2022-10-13T06:49:56;26.63;;;11.00;;
69910;SDS011;63555;49.920;17.868;2022-10-13T06:52:21;22.90;;;9.43;;
69910;SDS011;63555;49.920;17.868;2022-10-13T06:54:46;20.57;;;8.80;;
69910;SDS011;63555;49.920;17.868;2022-10-13T06:57:12;17.27;;;8.43;;
69910;SDS011;63555;49.920;17.868;2022-10-13T06:59:37;21.87;;;9.47;;
69910;SDS011;63555;49.920;17.868;2022-10-13T07:02:03;22.53;;;9.23;;
69910;SDS011;63555;49.920;17.868;2022-10-13T07:04:28;18.83;;;8.30;;
69910;SDS011;63555;49.920;17.868;2022-10-13T07:06:53;16.48;;;8.07;;
69910;SDS011;63555;49.920;17.868;2022-10-13T07:09:19;15.20;;;8.23;;
69910;SDS011;63555;49.920;17.868;2022-10-13T07:11:44;15.03;;;7.37;;
69910;SDS011;63555;49.920;17.868;2022-10-13T07:14:11;14.77;;;7.13;;
69910;SDS011;63555;49.920;17.868;2022-10-13T07:16:36;15.75;;;7.25;;
69910;SDS011;63555;49.920;17.868;2022-10-13T07:19:02;18.63;;;8.90;;
69910;SDS011;63555;49.920;17.868;2022-10-13T07:21:27;22.43;;;9.57;;
69910;SDS011;63555;49.920;17.868;2022-10-13T07:23:53;24.27;;;12.73;;
69910;SDS011;63555;49.920;17.868;2022-10-13T07:26:18;16.97;;;9.60;;
69910;SDS011;63555;49.920;17.868;2022-10-13T07:28:44;17.63;;;7.45;;
69910;SDS011;63555;49.920;17.868;2022-10-13T07:31:10;16.07;;;6.93;;
69910;SDS011;63555;49.920;17.868;2022-10-13T07:33:41;15.13;;;6.32;;
69910;SDS011;63555;49.920;17.868;2022-10-13T07:36:08;16.42;;;6.50;;
69910;SDS011;63555;49.920;17.868;2022-10-13T07:38:34;11.88;;;5.50;;
69910;SDS011;63555;49.920;17.868;2022-10-13T07:41:00;13.20;;;5.50;;
69910;SDS011;63555;49.920;17.868;2022-10-13T07:43:27;27.80;;;6.13;;
69910;SDS011;63555;49.920;17.868;2022-10-13T07:45:53;11.53;;;5.03;;
69910;SDS011;63555;49.920;17.868;2022-10-13T07:48:18;10.70;;;5.50;;
69910;SDS011;63555;49.920;17.868;2022-10-13T07:50:43;12.30;;;5.40;;
69910;SDS011;63555;49.920;17.868;2022-10-13T07:53:09;13.03;;;5.37;;
69910;SDS011;63555;49.920;17.868;2022-10-13T07:55:35;12.37;;;5.10;;
69910;SDS011;63555;49.920;17.868;2022-10-13T07:58:01;12.32;;;5.50;;
69910;SDS011;63555;49.920;17.868;2022-10-13T08:00:27;12.15;;;5.28;;
69910;SDS011;63555;49.920;17.868;2022-10-13T08:02:52;9.93;;;5.57;;
69910;SDS011;63555;49.920;17.868;2022-10-13T08:05:18;12.43;;;5.57;;
69910;SDS011;63555;49.920;17.868;2022-10-13T08:07:43;11.77;;;5.63;;
69910;SDS011;63555;49.920;17.868;2022-10-13T08:10:09;16.63;;;7.07;;
69910;SDS011;63555;49.920;17.868;2022-10-13T08:12:35;12.05;;;6.53;;
69910;SDS011;63555;49.920;17.868;2022-10-13T08:15:01;10.23;;;5.57;;
69910;SDS011;63555;49.920;17.868;2022-10-13T08:17:27;11.90;;;6.03;;
69910;SDS011;63555;49.920;17.868;2022-10-13T08:19:53;13.10;;;5.80;;
69910;SDS011;63555;49.920;17.868;2022-10-13T08:22:19;13.40;;;6.40;;
69910;SDS011;63555;49.920;17.868;2022-10-13T08:24:44;12.07;;;5.83;;
69910;SDS011;63555;49.920;17.868;2022-10-13T08:27:18;11.88;;;6.65;;
69910;SDS011;63555;49.920;17.868;2022-10-13T08:29:45;10.87;;;6.37;;
69910;SDS011;63555;49.920;17.868;2022-10-13T08:32:10;14.15;;;7.05;;
69910;SDS011;63555;49.920;17.868;2022-10-13T08:34:36;12.75;;;6.00;;
69910;SDS011;63555;49.920;17.868;2022-10-13T08:37:02;13.73;;;6.40;;
69910;SDS011;63555;49.920;17.868;2022-10-13T08:39:27;11.33;;;6.07;;
69910;SDS011;63555;49.920;17.868;2022-10-13T08:41:53;11.30;;;6.30;;
69910;SDS011;63555;49.920;17.868;2022-10-13T08:46:54;12.98;;;6.45;;
69910;SDS011;63555;49.920;17.868;2022-10-13T08:49:27;14.07;;;6.28;;
69910;SDS011;63555;49.920;17.868;2022-10-13T08:51:54;11.68;;;6.50;;
69910;SDS011;63555;49.920;17.868;2022-10-13T08:54:20;11.02;;;6.03;;
69910;SDS011;63555;49.920;17.868;2022-10-13T08:56:48;13.30;;;5.83;;
69910;SDS011;63555;49.920;17.868;2022-10-13T08:59:15;11.38;;;6.97;;
69910;SDS011;63555;49.920;17.868;2022-10-13T09:01:42;10.52;;;6.25;;
69910;SDS011;63555;49.920;17.868;2022-10-13T09:06:55;11.38;;;6.93;;
69910;SDS011;63555;49.920;17.868;2022-10-13T09:09:21;15.10;;;6.73;;
69910;SDS011;63555;49.920;17.868;2022-10-13T09:11:48;10.13;;;6.45;;
69910;SDS011;63555;49.920;17.868;2022-10-13T09:14:22;13.17;;;6.23;;
69910;SDS011;63555;49.920;17.868;2022-10-13T09:16:48;12.05;;;6.28;;
69910;SDS011;63555;49.920;17.868;2022-10-13T09:30:30;13.07;;;8.15;;
69910;SDS011;63555;49.920;17.868;2022-10-13T09:33:13;12.93;;;8.00;;
69910;SDS011;63555;49.920;17.868;2022-10-13T09:38:30;11.63;;;7.20;;
69910;SDS011;63555;49.920;17.868;2022-10-13T09:40:57;14.03;;;7.37;;
69910;SDS011;63555;49.920;17.868;2022-10-13T09:43:33;15.95;;;9.02;;
69910;SDS011;63555;49.920;17.868;2022-10-13T09:48:58;15.82;;;7.47;;
69910;SDS011;63555;49.920;17.868;2022-10-13T09:51:34;16.88;;;7.78;;
69910;SDS011;63555;49.920;17.868;2022-10-13T09:54:03;17.07;;;7.87;;
69910;SDS011;63555;49.920;17.868;2022-10-13T09:59:30;14.80;;;7.25;;
69910;SDS011;63555;49.920;17.868;2022-10-13T10:02:11;13.80;;;7.38;;
69910;SDS011;63555;49.920;17.868;2022-10-13T10:04:38;14.38;;;7.95;;
69910;SDS011;63555;49.920;17.868;2022-10-13T10:07:20;14.73;;;8.00;;
69910;SDS011;63555;49.920;17.868;2022-10-13T10:09:53;16.73;;;7.82;;
69910;SDS011;63555;49.920;17.868;2022-10-13T10:12:24;14.93;;;8.20;;
69910;SDS011;63555;49.920;17.868;2022-10-13T10:14:52;16.08;;;8.32;;
69910;SDS011;63555;49.920;17.868;2022-10-13T10:19:58;21.15;;;8.13;;
69910;SDS011;63555;49.920;17.868;2022-10-13T10:36:18;20.17;;;9.15;;
69910;SDS011;63555;49.920;17.868;2022-10-13T10:38:54;17.75;;;8.90;;
69910;SDS011;63555;49.920;17.868;2022-10-13T10:44:08;19.00;;;9.43;;
69910;SDS011;63555;49.920;17.868;2022-10-13T10:46:41;14.65;;;8.13;;
69910;SDS011;63555;49.920;17.868;2022-10-13T10:49:20;23.65;;;8.98;;
69910;SDS011;63555;49.920;17.868;2022-10-13T10:51:51;17.98;;;9.05;;
69910;SDS011;63555;49.920;17.868;2022-10-13T10:57:09;21.37;;;8.87;;
69910;SDS011;63555;49.920;17.868;2022-10-13T11:04:51;18.08;;;8.27;;
69910;SDS011;63555;49.920;17.868;2022-10-13T11:17:15;14.07;;;7.70;;
69910;SDS011;63555;49.920;17.868;2022-10-13T11:19:43;18.17;;;7.60;;
69910;SDS011;63555;49.920;17.868;2022-10-13T11:22:13;14.90;;;7.45;;
69910;SDS011;63555;49.920;17.868;2022-10-13T11:34:58;15.45;;;8.32;;
69910;SDS011;63555;49.920;17.868;2022-10-13T11:52:02;14.10;;;7.63;;
69910;SDS011;63555;49.920;17.868;2022-10-13T12:00:03;14.75;;;7.53;;
69910;SDS011;63555;49.920;17.868;2022-10-13T12:02:36;19.73;;;8.18;;
69910;SDS011;63555;49.920;17.868;2022-10-13T12:07:40;19.03;;;8.30;;
69910;SDS011;63555;49.920;17.868;2022-10-13T12:10:07;17.95;;;7.72;;
69910;SDS011;63555;49.920;17.868;2022-10-13T12:12:44;18.45;;;8.63;;
69910;SDS011;63555;49.920;17.868;2022-10-13T12:15:26;17.70;;;9.03;;
69910;SDS011;63555;49.920;17.868;2022-10-13T12:21:16;16.90;;;7.85;;
69910;SDS011;63555;49.920;17.868;2022-10-13T12:23:45;16.38;;;8.52;;
69910;SDS011;63555;49.920;17.868;2022-10-13T12:26:15;25.38;;;9.07;;
69910;SDS011;63555;49.920;17.868;2022-10-13T12:31:18;20.00;;;8.85;;
69910;SDS011;63555;49.920;17.868;2022-10-13T12:34:15;20.73;;;10.10;;
69910;SDS011;63555;49.920;17.868;2022-10-13T12:36:44;19.08;;;10.10;;
69910;SDS011;63555;49.920;17.868;2022-10-13T12:39:15;23.33;;;10.40;;
69910;SDS011;63555;49.920;17.868;2022-10-13T12:41:43;19.77;;;10.00;;
69910;SDS011;63555;49.920;17.868;2022-10-13T12:44:19;19.77;;;8.65;;
69910;SDS011;63555;49.920;17.868;2022-10-13T12:46:48;21.15;;;9.32;;
69910;SDS011;63555;49.920;17.868;2022-10-13T12:51:42;18.53;;;9.30;;
69910;SDS011;63555;49.920;17.868;2022-10-13T12:54:18;20.02;;;9.80;;
69910;SDS011;63555;49.920;17.868;2022-10-13T12:56:46;20.15;;;9.48;;
69910;SDS011;63555;49.920;17.868;2022-10-13T12:59:16;23.17;;;10.23;;
69910;SDS011;63555;49.920;17.868;2022-10-13T13:01:43;24.33;;;12.30;;
69910;SDS011;63555;49.920;17.868;2022-10-13T13:06:51;27.73;;;12.48;;
69910;SDS011;63555;49.920;17.868;2022-10-13T13:09:29;21.08;;;11.02;;
69910;SDS011;63555;49.920;17.868;2022-10-13T13:14:39;23.88;;;12.52;;
69910;SDS011;63555;49.920;17.868;2022-10-13T13:17:10;21.58;;;11.52;;
69910;SDS011;63555;49.920;17.868;2022-10-13T13:19:46;22.25;;;10.98;;
69910;SDS011;63555;49.920;17.868;2022-10-13T13:22:14;21.10;;;11.00;;
69910;SDS011;63555;49.920;17.868;2022-10-13T13:24:40;24.20;;;11.82;;
69910;SDS011;63555;49.920;17.868;2022-10-13T13:27:15;25.15;;;12.43;;
69910;SDS011;63555;49.920;17.868;2022-10-13T13:29:41;22.90;;;10.93;;
69910;SDS011;63555;49.920;17.868;2022-10-13T13:32:09;26.30;;;11.47;;
69910;SDS011;63555;49.920;17.868;2022-10-13T13:34:36;22.33;;;11.75;;
69910;SDS011;63555;49.920;17.868;2022-10-13T13:37:02;25.00;;;12.03;;
69910;SDS011;63555;49.920;17.868;2022-10-13T13:39:27;21.70;;;11.53;;
69910;SDS011;63555;49.920;17.868;2022-10-13T13:41:52;23.17;;;12.87;;
69910;SDS011;63555;49.920;17.868;2022-10-13T13:44:18;22.60;;;11.80;;
69910;SDS011;63555;49.920;17.868;2022-10-13T13:46:43;24.48;;;12.73;;
69910;SDS011;63555;49.920;17.868;2022-10-13T13:49:09;24.67;;;12.35;;
69910;SDS011;63555;49.920;17.868;2022-10-13T13:51:35;21.80;;;10.53;;
69910;SDS011;63555;49.920;17.868;2022-10-13T13:54:01;20.50;;;11.32;;
69910;SDS011;63555;49.920;17.868;2022-10-13T13:56:26;22.77;;;11.93;;
69910;SDS011;63555;49.920;17.868;2022-10-13T13:58:52;23.80;;;12.47;;
69910;SDS011;63555;49.920;17.868;2022-10-13T14:01:17;20.30;;;11.60;;
69910;SDS011;63555;49.920;17.868;2022-10-13T14:03:43;24.13;;;11.98;;
69910;SDS011;63555;49.920;17.868;2022-10-13T14:06:08;27.33;;;11.90;;
69910;SDS011;63555;49.920;17.868;2022-10-13T14:08:41;23.75;;;11.95;;
69910;SDS011;63555;49.920;17.868;2022-10-13T14:11:07;26.13;;;12.27;;
69910;SDS011;63555;49.920;17.868;2022-10-13T14:13:32;28.03;;;13.77;;
69910;SDS011;63555;49.920;17.868;2022-10-13T14:15:59;22.95;;;11.50;;
69910;SDS011;63555;49.920;17.868;2022-10-13T14:18:25;25.08;;;11.90;;
69910;SDS011;63555;49.920;17.868;2022-10-13T14:20:51;23.07;;;12.03;;
69910;SDS011;63555;49.920;17.868;2022-10-13T14:23:16;22.67;;;12.68;;
69910;SDS011;63555;49.920;17.868;2022-10-13T14:25:42;22.13;;;12.20;;
69910;SDS011;63555;49.920;17.868;2022-10-13T14:28:07;23.17;;;10.87;;
69910;SDS011;63555;49.920;17.868;2022-10-13T14:30:33;24.20;;;11.20;;
69910;SDS011;63555;49.920;17.868;2022-10-13T14:32:58;22.20;;;11.73;;
69910;SDS011;63555;49.920;17.868;2022-10-13T14:35:24;28.80;;;11.30;;
69910;SDS011;63555;49.920;17.868;2022-10-13T14:37:49;24.33;;;12.38;;
69910;SDS011;63555;49.920;17.868;2022-10-13T14:40:15;24.87;;;12.53;;
69910;SDS011;63555;49.920;17.868;2022-10-13T14:42:40;23.93;;;13.00;;
69910;SDS011;63555;49.920;17.868;2022-10-13T14:45:06;22.58;;;12.70;;
69910;SDS011;63555;49.920;17.868;2022-10-13T14:47:32;20.53;;;12.03;;
69910;SDS011;63555;49.920;17.868;2022-10-13T14:49:58;20.90;;;12.38;;
69910;SDS011;63555;49.920;17.868;2022-10-13T14:52:25;19.65;;;11.07;;
69910;SDS011;63555;49.920;17.868;2022-10-13T14:54:50;23.17;;;11.52;;
69910;SDS011;63555;49.920;17.868;2022-10-13T14:57:16;22.60;;;11.88;;
69910;SDS011;63555;49.920;17.868;2022-10-13T14:59:42;22.85;;;11.15;;
69910;SDS011;63555;49.920;17.868;2022-10-13T15:02:10;24.88;;;12.27;;
69910;SDS011;63555;49.920;17.868;2022-10-13T15:04:37;22.63;;;12.52;;
69910;SDS011;63555;49.920;17.868;2022-10-13T15:07:02;25.45;;;12.85;;
69910;SDS011;63555;49.920;17.868;2022-10-13T15:09:28;21.05;;;11.73;;
69910;SDS011;63555;49.920;17.868;2022-10-13T15:11:53;27.33;;;11.90;;
69910;SDS011;63555;49.920;17.868;2022-10-13T15:14:19;28.53;;;13.07;;
69910;SDS011;63555;49.920;17.868;2022-10-13T15:16:44;25.77;;;13.05;;
69910;SDS011;63555;49.920;17.868;2022-10-13T15:19:09;22.60;;;12.67;;
69910;SDS011;63555;49.920;17.868;2022-10-13T15:21:35;26.13;;;13.43;;
69910;SDS011;63555;49.920;17.868;2022-10-13T15:24:00;22.73;;;12.30;;
69910;SDS011;63555;49.920;17.868;2022-10-13T15:26:26;21.77;;;12.20;;
69910;SDS011;63555;49.920;17.868;2022-10-13T15:28:52;24.83;;;12.87;;
69910;SDS011;63555;49.920;17.868;2022-10-13T15:31:18;33.83;;;15.70;;
69910;SDS011;63555;49.920;17.868;2022-10-13T15:33:45;31.90;;;17.17;;
69910;SDS011;63555;49.920;17.868;2022-10-13T15:36:13;26.83;;;14.43;;
69910;SDS011;63555;49.920;17.868;2022-10-13T15:38:39;29.02;;;13.73;;
69910;SDS011;63555;49.920;17.868;2022-10-13T15:41:05;27.30;;;13.45;;
69910;SDS011;63555;49.920;17.868;2022-10-13T15:43:31;26.10;;;13.45;;
69910;SDS011;63555;49.920;17.868;2022-10-13T15:46:07;36.33;;;17.87;;
69910;SDS011;63555;49.920;17.868;2022-10-13T15:48:35;38.85;;;21.85;;
69910;SDS011;63555;49.920;17.868;2022-10-13T15:51:01;35.70;;;19.33;;
69910;SDS011;63555;49.920;17.868;2022-10-13T15:53:32;50.22;;;22.67;;
69910;SDS011;63555;49.920;17.868;2022-10-13T15:56:00;29.83;;;15.30;;
69910;SDS011;63555;49.920;17.868;2022-10-13T15:58:26;27.60;;;13.48;;
69910;SDS011;63555;49.920;17.868;2022-10-13T16:00:51;28.58;;;14.95;;
69910;SDS011;63555;49.920;17.868;2022-10-13T16:03:17;27.80;;;14.57;;
69910;SDS011;63555;49.920;17.868;2022-10-13T16:05:43;33.63;;;15.20;;
69910;SDS011;63555;49.920;17.868;2022-10-13T16:08:09;29.42;;;15.52;;
69910;SDS011;63555;49.920;17.868;2022-10-13T16:10:39;33.10;;;15.20;;
69910;SDS011;63555;49.920;17.868;2022-10-13T16:13:05;35.92;;;17.02;;
69910;SDS011;63555;49.920;17.868;2022-10-13T16:15:31;35.67;;;18.83;;
69910;SDS011;63555;49.920;17.868;2022-10-13T16:17:56;34.77;;;17.53;;
69910;SDS011;63555;49.920;17.868;2022-10-13T16:20:22;34.00;;;17.10;;
69910;SDS011;63555;49.920;17.868;2022-10-13T16:22:47;28.63;;;15.30;;
69910;SDS011;63555;49.920;17.868;2022-10-13T16:25:13;42.25;;;17.42;;
69910;SDS011;63555;49.920;17.868;2022-10-13T16:27:38;37.97;;;18.27;;
69910;SDS011;63555;49.920;17.868;2022-10-13T16:30:04;41.97;;;20.47;;
69910;SDS011;63555;49.920;17.868;2022-10-13T16:32:30;44.95;;;21.23;;